Time;durP1;ratioP1;P1;durP2;ratioP2;P2;SDS_P1;SDS_P2;PMS_P1;PMS_P2;Temp;Humidity;BMP_temperature;BMP_pressure;BME280_temperature;BME280_humidity;BME280_pressure;Samples;Min_cycle;Max_cycle;Signal;HPM_P1;HPM_P2
2023/08/04 00:00:44;;;;;;;7.07;4.72;;;;;;;;;;6258182;28;20089;-76
2023/08/04 00:03:45;;;;;;;7.65;4.95;;;;;;;;;;6284305;28;20049;-76
2023/08/04 00:06:47;;;;;;;6.00;4.93;;;;;;;;;;6250045;28;20049;-76
2023/08/04 00:09:49;;;;;;;7.28;4.90;;;;;;;;;;6241229;28;20128;-78
2023/08/04 00:12:51;;;;;;;5.97;4.70;;;;;;;;;;6241171;28;20495;-79
2023/08/04 00:15:52;;;;;;;10.70;4.95;;;;;;;;;;6245897;28;20041;-78
2023/08/04 00:18:54;;;;;;;7.63;4.70;;;;;;;;;;6256486;28;20049;-78
2023/08/04 00:21:56;;;;;;;8.70;5.05;;;;;;;;;;6259896;28;20053;-77
2023/08/04 00:24:57;;;;;;;6.53;4.80;;;;;;;;;;6267036;28;20045;-78
2023/08/04 00:27:59;;;;;;;6.25;5.15;;;;;;;;;;6263801;28;20075;-79
2023/08/04 00:31:01;;;;;;;9.50;4.93;;;;;;;;;;6245953;28;20504;-77
2023/08/04 00:34:03;;;;;;;6.57;5.10;;;;;;;;;;6255881;28;20041;-76
2023/08/04 00:37:05;;;;;;;7.40;4.80;;;;;;;;;;6253182;28;20045;-77
2023/08/04 00:40:07;;;;;;;7.78;5.07;;;;;;;;;;6260268;28;20064;-78
2023/08/04 00:43:09;;;;;;;7.47;5.33;;;;;;;;;;6235867;28;20037;-79
2023/08/04 00:46:11;;;;;;;8.13;5.68;;;;;;;;;;6255261;28;20067;-78
2023/08/04 00:49:12;;;;;;;7.25;4.70;;;;;;;;;;6237425;28;20094;-78
2023/08/04 00:52:15;;;;;;;5.63;4.75;;;;;;;;;;6245080;28;20041;-79
2023/08/04 00:55:17;;;;;;;9.32;4.93;;;;;;;;;;6251431;28;20056;-78
2023/08/04 00:58:19;;;;;;;8.48;4.95;;;;;;;;;;6257396;28;20043;-79
2023/08/04 01:01:23;;;;;;;7.47;4.75;;;;;;;;;;6219900;28;20052;-79
2023/08/04 01:04:25;;;;;;;10.75;5.40;;;;;;;;;;6253315;28;20163;-78
2023/08/04 01:07:30;;;;;;;8.95;5.18;;;;;;;;;;6229538;28;20053;-78
2023/08/04 01:11:13;;;;;;;7.85;5.38;;;;;;;;;;6253786;28;20079;-78
2023/08/04 01:14:15;;;;;;;7.07;5.47;;;;;;;;;;6256464;28;20138;-78
2023/08/04 01:17:27;;;;;;;8.52;5.60;;;;;;;;;;6233953;28;20045;-77
2023/08/04 01:20:29;;;;;;;9.55;5.43;;;;;;;;;;6255167;28;20053;-78
2023/08/04 01:23:32;;;;;;;9.23;6.13;;;;;;;;;;6221395;28;20045;-80
2023/08/04 01:26:36;;;;;;;10.02;5.55;;;;;;;;;;6256306;28;20048;-78
2023/08/04 01:29:44;;;;;;;7.65;5.10;;;;;;;;;;6251149;28;20768;-80
2023/08/04 01:32:46;;;;;;;8.80;5.13;;;;;;;;;;6247842;28;20056;-78
2023/08/04 01:35:52;;;;;;;8.00;4.93;;;;;;;;;;6259881;28;20060;-79
2023/08/04 01:38:55;;;;;;;10.90;5.97;;;;;;;;;;6257954;28;20045;-80
2023/08/04 01:41:56;;;;;;;6.82;5.55;;;;;;;;;;6253835;28;20075;-78
2023/08/04 01:44:58;;;;;;;9.48;5.57;;;;;;;;;;6242708;28;20052;-79
2023/08/04 01:48:00;;;;;;;10.48;6.05;;;;;;;;;;6258414;28;20044;-80
2023/08/04 01:51:02;;;;;;;8.32;6.13;;;;;;;;;;6250730;28;20061;-79
2023/08/04 01:54:03;;;;;;;7.72;5.57;;;;;;;;;;6254303;28;20071;-78
2023/08/04 01:57:05;;;;;;;10.05;6.18;;;;;;;;;;6228107;28;20278;-80
2023/08/04 02:00:08;;;;;;;12.25;5.90;;;;;;;;;;6238480;28;20045;-79
2023/08/04 02:03:12;;;;;;;8.43;5.72;;;;;;;;;;6239065;28;20041;-80
2023/08/04 02:06:15;;;;;;;9.90;6.30;;;;;;;;;;6255304;28;20045;-80
2023/08/04 02:09:17;;;;;;;9.27;6.32;;;;;;;;;;6258152;28;20045;-79
2023/08/04 02:12:19;;;;;;;7.60;5.38;;;;;;;;;;6239796;28;20056;-79
2023/08/04 02:15:22;;;;;;;9.27;5.47;;;;;;;;;;6256177;28;20069;-79
2023/08/04 02:18:23;;;;;;;;;;;;;;;;;;6258765;28;20048;-78
2023/08/04 02:21:25;;;;;;;8.40;5.55;;;;;;;;;;6242242;28;20243;-77
2023/08/04 02:24:26;;;;;;;7.10;5.47;;;;;;;;;;6253992;28;20049;-78
2023/08/04 02:27:28;;;;;;;10.65;6.18;;;;;;;;;;6256716;28;20044;-77
2023/08/04 02:30:30;;;;;;;11.73;6.20;;;;;;;;;;6238152;28;20045;-79
2023/08/04 02:33:31;;;;;;;10.93;6.15;;;;;;;;;;6254641;28;20075;-79
2023/08/04 02:36:33;;;;;;;14.55;8.13;;;;;;;;;;6247534;28;20056;-77
2023/08/04 02:39:35;;;;;;;11.90;7.60;;;;;;;;;;6254461;28;20071;-77
2023/08/04 02:42:36;;;;;;;13.35;7.13;;;;;;;;;;6257439;28;20063;-79
2023/08/04 02:45:45;;;;;;;12.75;7.15;;;;;;;;;;6254027;28;20144;-79
2023/08/04 02:48:47;;;;;;;10.63;6.70;;;;;;;;;;6256668;28;20042;-76
2023/08/04 02:51:49;;;;;;;10.88;6.18;;;;;;;;;;6255680;28;20048;-79
2023/08/04 02:54:54;;;;;;;9.27;6.43;;;;;;;;;;6253092;28;20045;-78
2023/08/04 02:57:56;;;;;;;14.80;8.77;;;;;;;;;;6216704;28;20033;-80
2023/08/04 03:00:59;;;;;;;12.13;7.85;;;;;;;;;;6257829;28;20048;-77
2023/08/04 03:04:01;;;;;;;12.32;7.03;;;;;;;;;;6233753;28;20041;-78
2023/08/04 03:07:03;;;;;;;11.20;6.33;;;;;;;;;;6254087;28;20409;-81
2023/08/04 03:10:05;;;;;;;9.90;6.15;;;;;;;;;;6236229;28;20040;-81
2023/08/04 03:13:08;;;;;;;11.80;6.53;;;;;;;;;;6237376;28;20076;-81
2023/08/04 03:16:10;;;;;;;10.18;6.68;;;;;;;;;;6252882;28;20041;-80
2023/08/04 03:19:11;;;;;;;16.00;7.35;;;;;;;;;;6259519;28;20053;-80
2023/08/04 03:22:13;;;;;;;12.00;7.25;;;;;;;;;;6253056;28;20049;-79
2023/08/04 03:25:15;;;;;;;11.98;7.07;;;;;;;;;;6238138;28;20053;-79
2023/08/04 03:28:17;;;;;;;11.10;7.20;;;;;;;;;;6247431;28;20052;-81
2023/08/04 03:31:18;;;;;;;13.73;7.70;;;;;;;;;;6240026;28;20045;-80
2023/08/04 03:34:20;;;;;;;10.27;6.82;;;;;;;;;;6257143;28;20064;-76
2023/08/04 03:37:22;;;;;;;13.63;7.40;;;;;;;;;;6224818;28;20144;-80
2023/08/04 03:40:23;;;;;;;16.38;7.95;;;;;;;;;;6255081;28;20048;-77
2023/08/04 03:43:25;;;;;;;15.77;7.75;;;;;;;;;;6257609;28;20099;-78
2023/08/04 03:46:27;;;;;;;15.88;8.27;;;;;;;;;;6253393;28;20076;-79
2023/08/04 03:49:28;;;;;;;11.55;7.35;;;;;;;;;;6251590;28;20049;-80
2023/08/04 03:52:30;;;;;;;13.00;7.82;;;;;;;;;;6243606;28;20764;-80
2023/08/04 03:55:33;;;;;;;16.93;7.73;;;;;;;;;;6248833;28;20072;-80
2023/08/04 03:58:34;;;;;;;13.03;7.97;;;;;;;;;;6248841;28;20033;-78
2023/08/04 04:01:36;;;;;;;13.00;7.82;;;;;;;;;;6251173;28;20436;-80
2023/08/04 04:04:39;;;;;;;12.63;7.82;;;;;;;;;;6254103;28;20045;-77
2023/08/04 04:07:40;;;;;;;11.05;7.57;;;;;;;;;;6263034;28;20110;-77
2023/08/04 04:10:43;;;;;;;21.10;10.30;;;;;;;;;;6233607;28;20049;-78
2023/08/04 04:13:45;;;;;;;16.05;9.57;;;;;;;;;;6250936;28;20044;-78
2023/08/04 04:16:46;;;;;;;15.43;8.68;;;;;;;;;;6265820;28;20046;-76
2023/08/04 04:19:48;;;;;;;16.02;9.75;;;;;;;;;;6272827;28;20059;-77
2023/08/04 04:22:52;;;;;;;17.38;9.52;;;;;;;;;;6236186;28;20053;-77
2023/08/04 04:25:54;;;;;;;15.18;8.65;;;;;;;;;;6252428;28;20048;-76
2023/08/04 04:28:56;;;;;;;15.75;8.98;;;;;;;;;;6251627;28;20136;-76
2023/08/04 04:31:58;;;;;;;16.33;8.85;;;;;;;;;;6238596;28;20045;-78
2023/08/04 04:35:00;;;;;;;17.70;9.13;;;;;;;;;;6248718;28;20083;-77
2023/08/04 04:38:01;;;;;;;20.13;9.55;;;;;;;;;;6254931;28;20065;-78
2023/08/04 04:41:03;;;;;;;17.27;10.02;;;;;;;;;;6248323;28;20041;-77
2023/08/04 04:44:04;;;;;;;18.23;10.18;;;;;;;;;;6248032;28;20052;-75
2023/08/04 04:47:06;;;;;;;17.92;9.27;;;;;;;;;;6250104;28;20052;-77
2023/08/04 04:50:08;;;;;;;18.13;8.52;;;;;;;;;;6254697;28;20057;-77
2023/08/04 04:53:10;;;;;;;14.90;8.97;;;;;;;;;;6249828;28;20041;-77
2023/08/04 04:56:12;;;;;;;13.45;8.40;;;;;;;;;;6252586;28;20061;-77
2023/08/04 04:59:13;;;;;;;14.23;8.55;;;;;;;;;;6256772;28;20041;-76
2023/08/04 05:02:15;;;;;;;16.48;8.52;;;;;;;;;;6257612;28;21434;-78
2023/08/04 05:05:17;;;;;;;11.63;7.75;;;;;;;;;;6258624;28;20084;-77
2023/08/04 05:08:19;;;;;;;14.68;8.55;;;;;;;;;;6252882;28;20052;-77
2023/08/04 05:11:20;;;;;;;18.45;9.00;;;;;;;;;;6242857;28;20064;-76
2023/08/04 05:14:22;;;;;;;20.95;9.68;;;;;;;;;;6255661;28;20122;-75
2023/08/04 05:17:24;;;;;;;17.73;9.88;;;;;;;;;;6254506;28;20057;-76
2023/08/04 05:20:25;;;;;;;15.90;10.25;;;;;;;;;;6260292;28;20395;-78
2023/08/04 05:23:27;;;;;;;18.20;9.35;;;;;;;;;;6257967;28;20053;-78
2023/08/04 05:26:29;;;;;;;20.08;10.45;;;;;;;;;;6255360;28;20049;-77
2023/08/04 05:29:31;;;;;;;16.50;9.63;;;;;;;;;;6252461;28;20053;-76
2023/08/04 05:32:34;;;;;;;17.38;9.75;;;;;;;;;;6258185;28;20041;-77
2023/08/04 05:35:38;;;;;;;16.77;9.60;;;;;;;;;;6237628;28;20560;-77
2023/08/04 05:38:40;;;;;;;18.77;9.65;;;;;;;;;;6251437;28;20038;-78
2023/08/04 05:41:44;;;;;;;15.90;8.75;;;;;;;;;;6255728;28;20127;-77
2023/08/04 05:44:46;;;;;;;14.68;8.75;;;;;;;;;;6218930;28;20044;-77
2023/08/04 05:47:47;;;;;;;15.10;8.10;;;;;;;;;;6253954;28;20042;-75
2023/08/04 05:50:55;;;;;;;16.08;9.32;;;;;;;;;;6234839;28;20044;-76
2023/08/04 05:53:56;;;;;;;14.65;9.18;;;;;;;;;;6234904;28;20124;-77
2023/08/04 05:56:59;;;;;;;15.18;9.35;;;;;;;;;;6253250;28;20041;-77
2023/08/04 06:00:01;;;;;;;20.77;10.30;;;;;;;;;;6249983;28;20077;-77
2023/08/04 06:03:05;;;;;;;16.88;9.05;;;;;;;;;;6250393;28;20080;-77
2023/08/04 06:06:07;;;;;;;15.00;8.70;;;;;;;;;;6248569;28;20534;-77
2023/08/04 06:09:09;;;;;;;11.75;7.60;;;;;;;;;;6248266;28;20072;-77
2023/08/04 06:12:11;;;;;;;13.30;7.72;;;;;;;;;;6233466;28;20049;-76
2023/08/04 06:15:14;;;;;;;13.98;7.70;;;;;;;;;;6252659;28;20048;-77
2023/08/04 06:18:15;;;;;;;12.00;7.07;;;;;;;;;;6251520;28;20033;-77
2023/08/04 06:21:17;;;;;;;15.15;7.25;;;;;;;;;;6253841;28;20439;-76
2023/08/04 06:24:28;;;;;;;11.70;6.53;;;;;;;;;;6255840;28;20045;-78
2023/08/04 06:27:30;;;;;;;13.77;7.03;;;;;;;;;;6258800;28;20045;-78
2023/08/04 06:30:31;;;;;;;12.00;6.70;;;;;;;;;;6242241;28;20498;-75
2023/08/04 06:33:33;;;;;;;12.02;6.50;;;;;;;;;;6258537;28;20037;-76
2023/08/04 06:36:35;;;;;;;12.75;6.20;;;;;;;;;;6252674;28;20045;-77
2023/08/04 06:39:36;;;;;;;8.60;5.47;;;;;;;;;;6255962;28;20538;-77
2023/08/04 06:42:38;;;;;;;12.35;6.38;;;;;;;;;;6254068;28;20059;-76
2023/08/04 06:45:40;;;;;;;10.60;5.70;;;;;;;;;;6257268;28;20037;-77
2023/08/04 06:48:42;;;;;;;10.23;5.88;;;;;;;;;;6254338;28;20045;-78
2023/08/04 06:51:43;;;;;;;9.70;5.57;;;;;;;;;;6249295;28;20068;-77
2023/08/04 06:54:45;;;;;;;10.23;5.97;;;;;;;;;;6254165;28;20523;-77
2023/08/04 06:57:47;;;;;;;9.67;5.40;;;;;;;;;;6250382;28;20064;-76
2023/08/04 07:00:49;;;;;;;11.18;5.85;;;;;;;;;;6256876;28;20498;-76
2023/08/04 07:03:51;;;;;;;9.43;5.38;;;;;;;;;;6253013;28;20071;-77
2023/08/04 07:06:54;;;;;;;8.55;5.25;;;;;;;;;;6240268;28;20125;-78
2023/08/04 07:09:55;;;;;;;;;;;;;;;;;;6244927;28;20088;-78
2023/08/04 07:12:57;;;;;;;8.13;5.13;;;;;;;;;;6251576;28;19936;-78
2023/08/04 07:15:59;;;;;;;11.80;5.55;;;;;;;;;;6254634;28;20241;-78
2023/08/04 07:19:01;;;;;;;8.10;5.10;;;;;;;;;;6253185;28;20049;-77
2023/08/04 07:22:03;;;;;;;8.63;4.43;;;;;;;;;;6251931;28;20049;-77
2023/08/04 07:25:04;;;;;;;8.93;4.70;;;;;;;;;;6252699;28;20060;-76
2023/08/04 07:28:06;;;;;;;7.78;4.38;;;;;;;;;;6255005;28;20048;-76
2023/08/04 07:31:09;;;;;;;8.35;4.70;;;;;;;;;;6249324;28;20111;-78
2023/08/04 07:34:11;;;;;;;;;;;;;;;;;;6239245;28;20048;-76
2023/08/04 07:37:13;;;;;;;9.88;4.78;;;;;;;;;;6248382;28;19921;-77
2023/08/04 07:40:14;;;;;;;10.65;4.50;;;;;;;;;;6249533;28;20147;-77
2023/08/04 07:43:17;;;;;;;7.10;4.00;;;;;;;;;;6245790;28;20427;-77
2023/08/04 07:46:23;;;;;;;9.63;4.50;;;;;;;;;;6251344;28;20114;-78
2023/08/04 07:49:25;;;;;;;9.23;4.25;;;;;;;;;;6249668;28;20205;-77
2023/08/04 07:52:26;;;;;;;7.85;4.60;;;;;;;;;;6244955;28;20084;-77
2023/08/04 07:55:30;;;;;;;8.30;5.22;;;;;;;;;;6231590;28;20195;-77
2023/08/04 07:58:31;;;;;;;7.50;4.85;;;;;;;;;;6246745;28;20052;-76
2023/08/04 08:01:33;;;;;;;11.23;4.90;;;;;;;;;;6250392;28;20133;-77
2023/08/04 08:04:34;;;;;;;10.63;5.68;;;;;;;;;;6248103;28;20077;-77
2023/08/04 08:07:36;;;;;;;9.27;5.57;;;;;;;;;;6246166;28;20042;-75
2023/08/04 08:10:46;;;;;;;8.75;5.82;;;;;;;;;;6255666;28;20131;-76
2023/08/04 08:13:48;;;;;;;11.23;6.53;;;;;;;;;;6252514;28;20045;-77
2023/08/04 08:16:50;;;;;;;11.95;6.05;;;;;;;;;;6240249;28;20087;-77
2023/08/04 08:19:52;;;;;;;9.18;6.20;;;;;;;;;;6252218;28;20043;-76
2023/08/04 08:22:54;;;;;;;12.07;6.22;;;;;;;;;;6253196;28;20048;-74
2023/08/04 08:25:56;;;;;;;12.25;6.22;;;;;;;;;;6255358;28;20048;-76
2023/08/04 08:28:57;;;;;;;11.00;6.72;;;;;;;;;;6261828;28;20041;-74
2023/08/04 08:31:59;;;;;;;9.40;6.15;;;;;;;;;;6257752;28;20115;-77
2023/08/04 08:35:00;;;;;;;10.40;6.28;;;;;;;;;;6255409;28;20568;-76
2023/08/04 08:38:02;;;;;;;9.73;6.30;;;;;;;;;;6255083;28;20041;-76
2023/08/04 08:41:04;;;;;;;11.02;5.88;;;;;;;;;;6235578;28;20044;-77
2023/08/04 08:44:05;;;;;;;11.43;6.22;;;;;;;;;;6244895;28;20057;-77
2023/08/04 08:47:08;;;;;;;9.18;5.88;;;;;;;;;;6253713;28;20592;-77
2023/08/04 08:50:10;;;;;;;9.83;5.80;;;;;;;;;;6240672;28;20045;-76
2023/08/04 08:53:13;;;;;;;7.65;5.40;;;;;;;;;;6238229;28;20440;-75
2023/08/04 08:56:16;;;;;;;6.38;4.38;;;;;;;;;;6252274;28;20138;-76
2023/08/04 08:59:18;;;;;;;6.32;3.70;;;;;;;;;;6252042;28;20041;-76
2023/08/04 09:02:20;;;;;;;5.13;3.53;;;;;;;;;;6255960;28;20377;-77
2023/08/04 09:05:22;;;;;;;8.55;3.67;;;;;;;;;;6249732;28;20041;-76
2023/08/04 09:08:23;;;;;;;5.90;3.55;;;;;;;;;;6255686;28;20049;-77
2023/08/04 09:11:30;;;;;;;3.65;2.67;;;;;;;;;;6258327;28;20465;-75
2023/08/04 09:14:51;;;;;;;8.30;3.38;;;;;;;;;;6249884;28;20073;-75
2023/08/04 09:17:52;;;;;;;4.80;2.95;;;;;;;;;;6237364;28;20041;-76
2023/08/04 09:21:10;;;;;;;3.60;3.00;;;;;;;;;;6259286;28;20045;-76
2023/08/04 09:24:13;;;;;;;6.40;3.30;;;;;;;;;;6255831;28;20525;-77
2023/08/04 09:27:27;;;;;;;4.60;2.80;;;;;;;;;;6223899;28;20049;-77
2023/08/04 09:30:28;;;;;;;4.80;2.88;;;;;;;;;;6238633;28;20057;-76
2023/08/04 09:33:31;;;;;;;5.30;2.80;;;;;;;;;;6259196;28;20418;-78
2023/08/04 09:36:44;;;;;;;3.17;2.40;;;;;;;;;;6253447;28;20048;-77
2023/08/04 09:39:46;;;;;;;4.07;2.60;;;;;;;;;;6251306;28;20125;-77
2023/08/04 09:42:48;;;;;;;3.53;2.55;;;;;;;;;;6243047;28;20567;-78
2023/08/04 09:45:56;;;;;;;3.70;2.50;;;;;;;;;;6244532;28;20065;-78
2023/08/04 09:48:59;;;;;;;4.22;2.40;;;;;;;;;;6247189;28;20060;-76
2023/08/04 09:52:01;;;;;;;25.13;4.50;;;;;;;;;;6234915;28;20048;-77
2023/08/04 09:55:08;;;;;;;22.42;4.28;;;;;;;;;;6258739;28;20044;-78
2023/08/04 09:58:10;;;;;;;5.45;2.85;;;;;;;;;;6239403;28;20115;-76
2023/08/04 10:01:13;;;;;;;5.82;2.65;;;;;;;;;;6249165;28;20056;-77
2023/08/04 10:04:16;;;;;;;38.20;6.22;;;;;;;;;;6253645;28;20045;-77
2023/08/04 10:07:19;;;;;;;5.68;3.17;;;;;;;;;;6256998;28;20053;-75
2023/08/04 10:10:20;;;;;;;6.97;3.80;;;;;;;;;;6239798;28;20566;-76
2023/08/04 10:13:26;;;;;;;5.70;3.40;;;;;;;;;;6247842;28;20041;-76
2023/08/04 10:16:32;;;;;;;7.50;3.75;;;;;;;;;;6234064;28;20131;-77
2023/08/04 10:19:35;;;;;;;7.95;3.58;;;;;;;;;;6243325;28;20053;-78
2023/08/04 10:22:41;;;;;;;5.68;3.50;;;;;;;;;;6247469;28;20052;-75
2023/08/04 10:26:01;;;;;;;6.55;3.83;;;;;;;;;;6243914;28;20053;-75
2023/08/04 10:29:03;;;;;;;7.60;4.13;;;;;;;;;;6249258;28;20045;-74
2023/08/04 10:32:07;;;;;;;8.03;3.70;;;;;;;;;;6248642;28;20037;-73
2023/08/04 10:35:18;;;;;;;5.40;3.70;;;;;;;;;;6249471;28;20448;-75
2023/08/04 10:38:24;;;;;;;4.57;2.88;;;;;;;;;;6239363;28;20111;-78
2023/08/04 10:41:25;;;;;;;3.30;2.72;;;;;;;;;;6253656;28;20052;-77
2023/08/04 10:44:29;;;;;;;3.83;3.10;;;;;;;;;;6250207;28;20525;-78
2023/08/04 10:47:41;;;;;;;5.75;2.90;;;;;;;;;;6243795;28;20067;-78
2023/08/04 10:51:03;;;;;;;4.53;2.78;;;;;;;;;;6252114;28;20498;-77
2023/08/04 10:54:04;;;;;;;6.10;2.97;;;;;;;;;;6233927;28;20783;-77
2023/08/04 10:57:06;;;;;;;4.40;2.90;;;;;;;;;;6241431;28;20076;-76
2023/08/04 11:00:10;;;;;;;5.82;3.70;;;;;;;;;;6236696;28;20067;-76
2023/08/04 11:03:20;;;;;;;3.70;2.90;;;;;;;;;;6248762;28;20080;-76
2023/08/04 11:06:22;;;;;;;6.03;2.83;;;;;;;;;;6245349;28;20131;-76
2023/08/04 11:09:24;;;;;;;4.80;2.50;;;;;;;;;;6237663;28;20052;-77
2023/08/04 11:12:25;;;;;;;5.68;2.90;;;;;;;;;;6248427;28;20529;-77
2023/08/04 11:15:27;;;;;;;5.15;3.05;;;;;;;;;;6245445;28;20064;-77
2023/08/04 11:18:31;;;;;;;4.70;2.78;;;;;;;;;;6240203;28;20041;-76
2023/08/04 11:21:32;;;;;;;3.92;2.60;;;;;;;;;;6233166;28;20094;-76
2023/08/04 11:24:34;;;;;;;5.97;4.50;;;;;;;;;;6246109;28;20041;-76
2023/08/04 11:27:36;;;;;;;9.43;6.65;;;;;;;;;;6231677;28;20537;-77
2023/08/04 11:30:37;;;;;;;5.78;3.00;;;;;;;;;;6239484;28;20065;-76
2023/08/04 11:33:43;;;;;;;6.43;3.50;;;;;;;;;;6250535;28;20060;-77
2023/08/04 11:36:45;;;;;;;4.30;2.80;;;;;;;;;;6246171;28;20118;-75
2023/08/04 11:39:48;;;;;;;4.50;2.83;;;;;;;;;;6246655;28;20637;-77
2023/08/04 11:42:50;;;;;;;5.45;3.20;;;;;;;;;;6243443;28;20722;-77
2023/08/04 11:45:55;;;;;;;5.32;2.70;;;;;;;;;;6255353;28;20522;-77
2023/08/04 11:49:07;;;;;;;8.82;6.38;;;;;;;;;;6253005;28;20037;-77
2023/08/04 11:52:10;;;;;;;3.80;2.95;;;;;;;;;;6249453;28;20048;-76
2023/08/04 11:55:11;;;;;;;4.97;3.15;;;;;;;;;;6253632;28;20625;-76
2023/08/04 11:58:13;;;;;;;4.82;2.80;;;;;;;;;;6251307;28;20033;-76
2023/08/04 12:01:26;;;;;;;4.63;3.38;;;;;;;;;;6254257;28;20131;-77
2023/08/04 12:04:27;;;;;;;;;;;;;;;;;;6254237;28;20052;-77
2023/08/04 12:07:29;;;;;;;6.32;3.25;;;;;;;;;;6251278;28;19964;-77
2023/08/04 12:10:31;;;;;;;6.13;3.50;;;;;;;;;;6252265;28;20167;-77
2023/08/04 12:13:34;;;;;;;6.90;3.45;;;;;;;;;;6249957;28;20122;-77
2023/08/04 12:16:57;;;;;;;5.70;3.65;;;;;;;;;;6252817;28;20419;-77
2023/08/04 12:19:59;;;;;;;8.82;5.60;;;;;;;;;;6251220;28;20065;-77
2023/08/04 12:23:12;;;;;;;7.65;4.80;;;;;;;;;;6253077;28;20041;-78
2023/08/04 12:26:14;;;;;;;;;;;;;;;;;;6245910;28;21089;-77
2023/08/04 12:29:15;;;;;;;3.83;2.63;;;;;;;;;;6228920;28;19925;-78
2023/08/04 12:32:18;;;;;;;4.30;3.00;;;;;;;;;;6250548;28;20045;-77
2023/08/04 12:35:21;;;;;;;4.30;2.50;;;;;;;;;;6255265;28;20051;-76
2023/08/04 12:38:23;;;;;;;;;;;;;;;;;;6253698;28;20052;-79
2023/08/04 12:41:26;;;;;;;3.70;2.80;;;;;;;;;;6253403;28;20015;-78
2023/08/04 12:44:30;;;;;;;5.20;3.08;;;;;;;;;;6252233;28;20049;-78
2023/08/04 12:47:33;;;;;;;4.88;3.58;;;;;;;;;;6241694;28;20037;-77
2023/08/04 12:50:35;;;;;;;4.97;3.13;;;;;;;;;;6249006;28;20438;-78
2023/08/04 12:53:37;;;;;;;5.38;3.47;;;;;;;;;;6232763;28;20048;-78
2023/08/04 12:56:39;;;;;;;6.82;3.53;;;;;;;;;;6233784;28;20119;-78
2023/08/04 12:59:40;;;;;;;6.93;4.00;;;;;;;;;;6253127;28;20132;-78
2023/08/04 13:02:42;;;;;;;5.30;3.75;;;;;;;;;;6235365;28;20087;-77
2023/08/04 13:05:44;;;;;;;10.13;4.30;;;;;;;;;;6238494;28;20045;-78
2023/08/04 13:08:46;;;;;;;6.35;4.10;;;;;;;;;;6253409;28;20045;-78
2023/08/04 13:11:47;;;;;;;6.35;3.60;;;;;;;;;;6250809;28;20067;-77
2023/08/04 13:14:49;;;;;;;4.75;3.78;;;;;;;;;;6236777;28;20621;-77
2023/08/04 13:17:52;;;;;;;7.05;4.30;;;;;;;;;;6253980;28;20041;-78
2023/08/04 13:20:53;;;;;;;6.32;3.95;;;;;;;;;;6237527;28;20372;-78
2023/08/04 13:23:55;;;;;;;5.53;3.95;;;;;;;;;;6257606;28;20037;-77
2023/08/04 13:26:57;;;;;;;6.50;4.15;;;;;;;;;;6258840;28;20115;-78
2023/08/04 13:29:59;;;;;;;7.18;3.78;;;;;;;;;;6255298;28;20048;-78
2023/08/04 13:33:01;;;;;;;4.85;3.58;;;;;;;;;;6245449;28;20052;-78
2023/08/04 13:36:04;;;;;;;4.97;3.38;;;;;;;;;;6267373;28;20044;-76
2023/08/04 13:39:05;;;;;;;6.60;3.67;;;;;;;;;;6248075;28;20534;-76
2023/08/04 13:42:07;;;;;;;5.10;3.38;;;;;;;;;;6268889;28;20507;-76
2023/08/04 13:45:09;;;;;;;5.25;3.47;;;;;;;;;;6247946;28;20053;-77
2023/08/04 13:48:11;;;;;;;4.10;3.47;;;;;;;;;;6261594;28;20056;-76
2023/08/04 13:51:12;;;;;;;5.47;3.47;;;;;;;;;;6258861;28;20060;-77
2023/08/04 13:54:28;;;;;;;4.68;3.42;;;;;;;;;;6263914;28;20048;-77
2023/08/04 13:57:30;;;;;;;5.85;3.35;;;;;;;;;;6266637;28;20049;-76
2023/08/04 14:00:42;;;;;;;6.55;3.70;;;;;;;;;;6252853;28;20056;-77
2023/08/04 14:03:44;;;;;;;7.20;3.83;;;;;;;;;;6237956;28;20076;-77
2023/08/04 14:06:46;;;;;;;5.70;4.07;;;;;;;;;;6259997;28;20110;-78
2023/08/04 14:09:48;;;;;;;5.25;3.65;;;;;;;;;;6239232;28;20041;-77
2023/08/04 14:12:50;;;;;;;6.43;3.67;;;;;;;;;;6252556;28;20053;-77
2023/08/04 14:15:51;;;;;;;6.82;3.75;;;;;;;;;;6256630;28;20048;-78
2023/08/04 14:18:53;;;;;;;5.73;3.70;;;;;;;;;;6258489;28;20530;-75
2023/08/04 14:21:55;;;;;;;6.63;3.67;;;;;;;;;;6249763;28;20254;-77
2023/08/04 14:24:57;;;;;;;5.17;3.57;;;;;;;;;;6257062;28;20134;-78
2023/08/04 14:27:58;;;;;;;4.70;3.50;;;;;;;;;;6244754;28;22059;-76
2023/08/04 14:31:00;;;;;;;4.38;3.30;;;;;;;;;;6252918;28;20045;-77
2023/08/04 14:34:02;;;;;;;5.07;3.53;;;;;;;;;;6251989;28;20130;-77
2023/08/04 14:37:04;;;;;;;4.95;3.95;;;;;;;;;;6251323;28;20447;-76
2023/08/04 14:40:06;;;;;;;4.28;3.55;;;;;;;;;;6256733;28;20037;-78
2023/08/04 14:43:08;;;;;;;4.55;3.38;;;;;;;;;;6256844;28;20049;-78
2023/08/04 14:46:11;;;;;;;6.33;3.40;;;;;;;;;;6256418;28;20053;-77
2023/08/04 14:49:13;;;;;;;4.00;3.22;;;;;;;;;;6254121;28;20029;-75
2023/08/04 14:52:15;;;;;;;4.47;3.50;;;;;;;;;;6255875;28;20057;-77
2023/08/04 14:55:17;;;;;;;4.68;3.17;;;;;;;;;;6256547;28;20041;-75
2023/08/04 14:58:19;;;;;;;4.17;2.70;;;;;;;;;;6256366;28;20048;-75
2023/08/04 15:01:20;;;;;;;4.10;2.67;;;;;;;;;;6253378;28;20049;-79
2023/08/04 15:04:22;;;;;;;5.00;3.30;;;;;;;;;;6250517;28;20060;-79
2023/08/04 15:07:24;;;;;;;3.07;2.77;;;;;;;;;;6232932;28;20609;-79
2023/08/04 15:10:29;;;;;;;3.63;2.80;;;;;;;;;;6255076;28;20529;-79
2023/08/04 15:13:30;;;;;;;4.43;2.88;;;;;;;;;;6255433;28;20559;-79
2023/08/04 15:16:32;;;;;;;3.97;2.93;;;;;;;;;;6259015;28;20115;-79
2023/08/04 15:19:34;;;;;;;3.85;2.85;;;;;;;;;;6244656;28;20423;-77
2023/08/04 15:22:36;;;;;;;3.67;2.73;;;;;;;;;;6257748;28;20044;-79
2023/08/04 15:25:37;;;;;;;3.88;3.00;;;;;;;;;;6257788;28;20444;-78
2023/08/04 15:28:42;;;;;;;5.60;3.20;;;;;;;;;;6235733;28;21850;-79
2023/08/04 15:31:44;;;;;;;4.90;3.50;;;;;;;;;;6257003;28;20037;-76
2023/08/04 15:34:46;;;;;;;5.00;3.63;;;;;;;;;;6255768;28;20491;-79
2023/08/04 15:37:48;;;;;;;7.07;3.88;;;;;;;;;;6219954;28;20045;-78
2023/08/04 15:41:01;;;;;;;5.50;3.80;;;;;;;;;;6236672;28;20043;-78
2023/08/04 15:44:03;;;;;;;3.08;2.70;;;;;;;;;;6233648;28;20041;-77
2023/08/04 15:47:05;;;;;;;3.33;2.35;;;;;;;;;;6251615;28;20130;-76
2023/08/04 15:50:07;;;;;;;4.18;2.25;;;;;;;;;;6234615;28;20048;-76
2023/08/04 15:53:09;;;;;;;;;;;;;;;;;;6236663;28;20111;-76
2023/08/04 15:56:10;;;;;;;2.85;2.40;;;;;;;;;;6246082;28;20374;-77
2023/08/04 15:59:12;;;;;;;3.70;2.28;;;;;;;;;;6247463;28;20191;-78
2023/08/04 16:02:14;;;;;;;2.50;2.30;;;;;;;;;;6252265;28;20045;-77
2023/08/04 16:05:15;;;;;;;3.30;2.60;;;;;;;;;;6252350;28;20119;-79
2023/08/04 16:08:18;;;;;;;;;;;;;;;;;;6251754;28;20053;-78
2023/08/04 16:11:20;;;;;;;3.55;3.10;;;;;;;;;;6251581;28;20007;-77
2023/08/04 16:14:21;;;;;;;4.90;3.30;;;;;;;;;;6247556;28;20037;-78
2023/08/04 16:17:23;;;;;;;5.35;3.03;;;;;;;;;;6254530;28;20132;-77
2023/08/04 16:20:24;;;;;;;4.07;3.17;;;;;;;;;;6253928;28;20495;-76
2023/08/04 16:23:26;;;;;;;3.53;2.60;;;;;;;;;;6247708;28;20122;-78
2023/08/04 16:26:29;;;;;;;4.03;2.85;;;;;;;;;;6250572;28;20049;-77
2023/08/04 16:29:31;;;;;;;4.20;2.88;;;;;;;;;;6252141;28;20037;-76
2023/08/04 16:32:32;;;;;;;3.33;2.92;;;;;;;;;;6237246;28;20263;-79
2023/08/04 16:35:34;;;;;;;4.28;2.70;;;;;;;;;;6243767;28;20054;-78
2023/08/04 16:38:36;;;;;;;3.08;2.47;;;;;;;;;;6250928;28;20044;-79
2023/08/04 16:41:37;;;;;;;3.72;2.80;;;;;;;;;;6251463;28;20041;-76
2023/08/04 16:44:39;;;;;;;4.25;2.50;;;;;;;;;;6235834;28;20046;-78
2023/08/04 16:47:41;;;;;;;3.37;3.07;;;;;;;;;;6259588;28;20041;-77
2023/08/04 16:50:43;;;;;;;4.07;3.10;;;;;;;;;;6267943;28;20074;-77
2023/08/04 16:53:44;;;;;;;3.97;3.00;;;;;;;;;;6258334;28;20128;-79
2023/08/04 16:56:46;;;;;;;3.20;2.83;;;;;;;;;;6255349;28;20443;-77
2023/08/04 16:59:48;;;;;;;3.55;3.03;;;;;;;;;;6249532;28;20127;-75
2023/08/04 17:02:50;;;;;;;4.55;2.88;;;;;;;;;;6241889;28;20037;-76
2023/08/04 17:05:52;;;;;;;3.27;2.97;;;;;;;;;;6256988;28;20346;-76
2023/08/04 17:08:57;;;;;;;5.63;3.30;;;;;;;;;;6258528;28;20041;-78
2023/08/04 17:11:58;;;;;;;4.45;3.45;;;;;;;;;;6255119;28;20050;-78
2023/08/04 17:15:00;;;;;;;4.43;2.97;;;;;;;;;;6238223;28;20052;-78
2023/08/04 17:18:02;;;;;;;5.82;3.35;;;;;;;;;;6256130;28;20067;-77
2023/08/04 17:21:04;;;;;;;4.05;3.33;;;;;;;;;;6233897;28;20072;-77
2023/08/04 17:24:06;;;;;;;4.15;3.75;;;;;;;;;;6259490;28;20037;-78
2023/08/04 17:27:08;;;;;;;4.60;3.53;;;;;;;;;;6235661;28;20115;-79
2023/08/04 17:30:10;;;;;;;4.33;3.60;;;;;;;;;;6247098;28;20076;-76
2023/08/04 17:33:12;;;;;;;5.00;3.80;;;;;;;;;;6254336;28;20044;-75
2023/08/04 17:36:14;;;;;;;5.13;3.80;;;;;;;;;;6258434;28;20076;-76
2023/08/04 17:39:16;;;;;;;4.90;3.60;;;;;;;;;;6259084;28;20600;-77
2023/08/04 17:42:17;;;;;;;4.27;3.43;;;;;;;;;;6253903;28;20150;-79
2023/08/04 17:45:19;;;;;;;5.82;3.55;;;;;;;;;;6238216;28;20049;-77
2023/08/04 17:48:21;;;;;;;5.80;3.53;;;;;;;;;;6257643;28;20538;-76
2023/08/04 17:51:23;;;;;;;3.90;3.50;;;;;;;;;;6255947;28;20151;-76
2023/08/04 17:54:24;;;;;;;4.57;3.10;;;;;;;;;;6252949;28;20499;-78
2023/08/04 17:57:27;;;;;;;6.82;3.30;;;;;;;;;;6253006;28;20057;-78
2023/08/04 18:00:28;;;;;;;6.05;3.38;;;;;;;;;;6257974;28;20962;-76
2023/08/04 18:03:30;;;;;;;5.07;3.13;;;;;;;;;;6257146;28;20052;-78
2023/08/04 18:06:32;;;;;;;5.00;3.20;;;;;;;;;;6259585;28;20055;-77
2023/08/04 18:09:33;;;;;;;5.32;3.45;;;;;;;;;;6255101;28;20049;-76
2023/08/04 18:12:35;;;;;;;3.60;2.90;;;;;;;;;;6263131;28;20498;-78